createdAt,value
2023-04-01T00:02:23.240Z,62.30
2023-04-01T00:04:49.943Z,62.40
2023-04-01T00:07:16.584Z,63.10
2023-04-01T00:09:43.176Z,62.30
2023-04-01T00:12:09.810Z,62.50
2023-04-01T00:14:37.971Z,62.50
2023-04-01T00:17:04.690Z,62.60
2023-04-01T00:19:32.836Z,62.40
2023-04-01T00:21:59.620Z,62.40
2023-04-01T00:24:26.221Z,62.50
2023-04-01T00:26:52.780Z,62.40
2023-04-01T00:29:19.351Z,62.30
2023-04-01T00:31:46.069Z,62.40
2023-04-01T00:34:13.187Z,62.40
2023-04-01T00:36:39.806Z,62.60
2023-04-01T00:39:06.379Z,62.70
2023-04-01T00:41:32.928Z,62.70
2023-04-01T00:44:19.118Z,62.60
2023-04-01T00:46:46.258Z,62.60
2023-04-01T00:49:13.324Z,62.30
2023-04-01T00:51:41.274Z,62.30
2023-04-01T00:54:08.421Z,62.30
2023-04-01T00:56:37.754Z,62.50
2023-04-01T00:59:09.397Z,62.80
2023-04-01T01:01:36.734Z,62.40
2023-04-01T01:04:03.584Z,62.50
2023-04-01T01:06:48.216Z,62.30
2023-04-01T01:09:14.839Z,62.30
2023-04-01T01:11:44.207Z,62.40
2023-04-01T01:14:18.337Z,62.30
2023-04-01T01:16:46.757Z,62.40
2023-04-01T01:19:32.318Z,62.30
2023-04-01T01:22:01.970Z,62.60
2023-04-01T01:24:37.754Z,62.50
2023-04-01T01:27:10.021Z,62.70
2023-04-01T01:29:55.634Z,62.10
2023-04-01T01:32:25.250Z,63.10
2023-04-01T01:34:56.708Z,63.00
2023-04-01T01:37:24.476Z,62.30
2023-04-01T01:39:56.466Z,62.60
2023-04-01T01:42:24.853Z,62.50
2023-04-01T01:44:52.991Z,62.80
2023-04-01T01:47:20.484Z,62.30
2023-04-01T01:49:47.225Z,62.30
2023-04-01T01:52:13.916Z,62.00
2023-04-01T01:54:54.223Z,62.30
2023-04-01T01:57:24.279Z,62.30
2023-04-01T01:59:53.086Z,62.10
2023-04-01T02:02:20.738Z,62.30
2023-04-01T02:04:47.627Z,62.50
2023-04-01T02:07:21.101Z,62.90
2023-04-01T02:09:48.508Z,62.50
2023-04-01T02:12:16.263Z,62.60
2023-04-01T02:14:52.881Z,62.50
2023-04-01T02:17:20.860Z,62.40
2023-04-01T02:19:56.737Z,62.30
2023-04-01T02:22:25.272Z,62.30
2023-04-01T02:24:54.577Z,62.40
2023-04-01T02:27:21.842Z,62.90
2023-04-01T02:29:48.516Z,62.70
2023-04-01T02:32:15.533Z,62.20
2023-04-01T02:34:42.404Z,62.50
2023-04-01T02:37:08.977Z,62.50
2023-04-01T02:39:35.712Z,62.40
2023-04-01T02:42:02.319Z,62.40
2023-04-01T02:44:28.910Z,62.50
2023-04-01T02:46:55.698Z,62.40
2023-04-01T02:49:22.435Z,62.30
2023-04-01T02:51:49.260Z,62.30
2023-04-01T02:54:16.063Z,62.40
2023-04-01T02:56:42.602Z,62.40
2023-04-01T02:59:09.144Z,62.50
2023-04-01T03:01:35.834Z,62.40
2023-04-01T03:04:02.476Z,62.50
2023-04-01T03:06:29.038Z,62.50
2023-04-01T03:08:55.661Z,62.50
2023-04-01T03:11:22.210Z,62.40
2023-04-01T03:13:49.712Z,62.40
2023-04-01T03:16:16.364Z,62.60
2023-04-01T03:18:42.996Z,62.50
2023-04-01T03:21:13.563Z,62.70
2023-04-01T03:23:40.132Z,62.30
2023-04-01T03:26:06.690Z,62.80
2023-04-01T03:28:33.227Z,62.80
2023-04-01T03:30:59.823Z,62.40
2023-04-01T03:33:26.411Z,62.50
2023-04-01T03:35:53.349Z,62.30
2023-04-01T03:38:20.349Z,62.30
2023-04-01T03:40:46.907Z,62.10
2023-04-01T03:43:13.752Z,62.20
2023-04-01T03:45:50.821Z,62.10
2023-04-01T03:48:18.035Z,62.20
2023-04-01T03:50:45.376Z,62.20
2023-04-01T03:53:12.012Z,62.30
2023-04-01T03:55:38.953Z,62.70
2023-04-01T03:58:06.083Z,62.50
2023-04-01T04:00:32.942Z,62.40
2023-04-01T04:02:59.974Z,62.50
2023-04-01T04:05:27.129Z,62.90
2023-04-01T04:07:54.124Z,62.30
2023-04-01T04:10:20.779Z,62.20
2023-04-01T04:12:47.354Z,62.30
2023-04-01T04:15:13.901Z,62.40
2023-04-01T04:17:40.758Z,62.50
2023-04-01T04:20:07.684Z,62.30
2023-04-01T04:22:34.272Z,62.30
2023-04-01T04:25:01.200Z,62.50
2023-04-01T04:27:27.963Z,62.20
2023-04-01T04:29:54.586Z,62.10
2023-04-01T04:32:21.272Z,62.30
2023-04-01T04:34:47.910Z,62.40
2023-04-01T04:37:14.549Z,62.50
2023-04-01T04:39:41.295Z,62.30
2023-04-01T04:42:07.854Z,62.10
2023-04-01T04:44:34.647Z,62.30
2023-04-01T04:47:01.970Z,62.20
2023-04-01T04:49:28.652Z,62.20
2023-04-01T04:51:55.525Z,63.00
2023-04-01T04:54:22.264Z,62.30
2023-04-01T04:56:49.206Z,62.40
2023-04-01T04:59:15.834Z,62.30
2023-04-01T05:01:42.463Z,62.40
2023-04-01T05:04:09.085Z,62.20
2023-04-01T05:06:35.815Z,62.10
2023-04-01T05:09:02.412Z,62.10
2023-04-01T05:11:29.114Z,62.20
2023-04-01T05:13:55.908Z,62.60
2023-04-01T05:16:22.575Z,62.70
2023-04-01T05:18:49.312Z,62.80
2023-04-01T05:21:16.394Z,62.50
2023-04-01T05:23:43.408Z,62.80
2023-04-01T05:26:11.634Z,62.50
2023-04-01T05:28:39.194Z,62.10
2023-04-01T05:31:06.556Z,62.00
2023-04-01T05:33:33.568Z,61.90
2023-04-01T05:36:06.980Z,61.90
2023-04-01T05:38:33.582Z,61.90
2023-04-01T05:41:01.224Z,62.10
2023-04-01T05:43:27.797Z,62.00
2023-04-01T05:45:54.418Z,62.10
2023-04-01T05:48:21.005Z,62.00
2023-04-01T05:50:47.943Z,61.90
2023-04-01T05:53:14.530Z,62.50
2023-04-01T05:55:41.143Z,62.50
2023-04-01T05:58:07.726Z,62.30
2023-04-01T06:00:34.338Z,62.70
2023-04-01T06:03:01.169Z,62.30
2023-04-01T06:05:31.785Z,62.20
2023-04-01T06:08:00.479Z,62.40
2023-04-01T06:10:39.233Z,62.70
2023-04-01T06:13:10.647Z,62.50
2023-04-01T06:15:53.148Z,62.30
2023-04-01T06:18:28.986Z,62.50
2023-04-01T06:21:05.948Z,62.20
2023-04-01T06:23:35.681Z,62.30
2023-04-01T06:26:18.987Z,62.50
2023-04-01T06:28:48.843Z,62.50
2023-04-01T06:31:33.995Z,62.50
2023-04-01T06:34:07.583Z,62.40
2023-04-01T06:36:40.038Z,62.40
2023-04-01T06:39:11.150Z,62.30
2023-04-01T06:41:55.422Z,62.90
2023-04-01T06:44:34.625Z,63.00
2023-04-01T06:47:16.266Z,62.80
2023-04-01T06:49:52.358Z,63.00
2023-04-01T06:52:23.908Z,63.10
2023-04-01T06:54:53.330Z,64.20
2023-04-01T06:57:29.490Z,66.70
2023-04-01T06:59:59.423Z,66.30
2023-04-01T07:02:28.846Z,66.50
2023-04-01T07:04:56.651Z,66.60
2023-04-01T07:07:42.472Z,69.00
2023-04-01T07:10:20.889Z,69.50
2023-04-01T07:12:49.459Z,68.20
2023-04-01T07:15:25.522Z,69.10
2023-04-01T07:18:02.772Z,67.90
2023-04-01T07:20:37.559Z,68.10
2023-04-01T07:23:07.053Z,67.70
2023-04-01T07:25:39.013Z,68.50
2023-04-01T07:28:07.431Z,67.70
2023-04-01T07:30:41.087Z,68.10
2023-04-01T07:33:16.152Z,68.00
2023-04-01T07:35:55.612Z,68.50
2023-04-01T07:38:30.741Z,68.80
2023-04-01T07:41:06.554Z,69.80
2023-04-01T07:43:51.998Z,71.70
2023-04-01T07:46:34.549Z,71.50
2023-04-01T07:49:01.215Z,69.80
2023-04-01T07:51:27.741Z,67.60
2023-04-01T07:54:14.239Z,66.80
2023-04-01T07:56:48.599Z,67.80
2023-04-01T07:59:32.499Z,67.00
2023-04-01T08:02:14.371Z,67.00
2023-04-01T08:04:43.970Z,67.60
2023-04-01T08:07:14.264Z,67.60
2023-04-01T08:09:45.615Z,69.00
2023-04-01T08:12:22.204Z,68.80
2023-04-01T08:14:48.839Z,68.30
2023-04-01T08:17:29.259Z,68.90
2023-04-01T08:19:59.696Z,67.80
2023-04-01T08:22:30.683Z,67.80
2023-04-01T08:25:00.914Z,69.10
2023-04-01T08:27:38.740Z,70.30
2023-04-01T08:30:11.586Z,68.20
2023-04-01T08:32:42.513Z,70.00
2023-04-01T08:35:18.269Z,67.40
2023-04-01T08:37:46.327Z,70.30
2023-04-01T08:40:29.754Z,70.10
2023-04-01T08:43:06.577Z,69.00
2023-04-01T08:45:50.347Z,68.00
2023-04-01T08:48:36.297Z,70.30
2023-04-01T08:51:12.969Z,68.70
2023-04-01T08:53:58.558Z,69.60
2023-04-01T08:56:32.293Z,68.80
2023-04-01T08:58:58.916Z,72.80
2023-04-01T09:01:44.401Z,69.40
2023-04-01T09:04:18.160Z,68.10
2023-04-01T09:07:19.172Z,68.80
2023-04-01T09:10:04.670Z,68.30
2023-04-01T09:12:31.224Z,71.10
2023-04-01T09:15:08.858Z,69.80
2023-04-01T09:17:54.433Z,68.90
2023-04-01T09:20:40.060Z,68.80
2023-04-01T09:23:26.516Z,68.10
2023-04-01T09:26:11.837Z,67.20
2023-04-01T09:29:04.943Z,68.20
2023-04-01T09:31:37.774Z,67.50
2023-04-01T09:34:22.717Z,67.60
2023-04-01T09:37:02.575Z,68.00
2023-04-01T09:39:37.322Z,67.20
2023-04-01T09:42:27.985Z,67.30
2023-04-01T09:45:02.063Z,67.80
2023-04-01T09:47:51.091Z,68.00
2023-04-01T09:50:23.876Z,69.60
2023-04-01T09:53:11.143Z,69.30
2023-04-01T09:55:56.511Z,67.60
2023-04-01T09:58:23.074Z,68.90
2023-04-01T10:00:55.927Z,69.50
2023-04-01T10:03:33.014Z,68.80
2023-04-01T10:06:21.496Z,69.10
2023-04-01T10:09:06.956Z,69.40
2023-04-01T10:11:33.643Z,68.70
2023-04-01T10:14:19.918Z,69.50
2023-04-01T10:17:05.053Z,69.10
2023-04-01T10:19:50.505Z,70.10
2023-04-01T10:22:20.176Z,72.10
2023-04-01T10:25:06.309Z,75.50
2023-04-01T10:27:33.019Z,69.40
2023-04-01T10:30:27.189Z,73.30
2023-04-01T10:33:16.595Z,70.60
2023-04-01T10:35:46.351Z,69.80
2023-04-01T10:38:26.801Z,69.20
2023-04-01T10:41:00.376Z,68.90
2023-04-01T10:43:39.851Z,69.20
2023-04-01T10:46:17.593Z,68.60
2023-04-01T10:48:53.970Z,67.90
2023-04-01T10:51:32.969Z,67.40
2023-04-01T10:54:18.514Z,68.60
2023-04-01T10:57:04.083Z,68.20
2023-04-01T10:59:39.936Z,68.40
2023-04-01T11:02:12.076Z,68.90
2023-04-01T11:05:14.455Z,69.60
2023-04-01T11:07:41.252Z,68.90
2023-04-01T11:10:10.801Z,69.50
2023-04-01T11:12:55.895Z,69.20
2023-04-01T11:15:22.443Z,69.80
2023-04-01T11:18:00.947Z,69.60
2023-04-01T11:20:51.033Z,70.60
2023-04-01T11:23:36.615Z,69.70
2023-04-01T11:26:12.375Z,69.70
2023-04-01T11:28:54.959Z,69.40
2023-04-01T11:31:21.618Z,69.10
2023-04-01T11:34:07.045Z,68.60
2023-04-01T11:36:42.698Z,68.30
2023-04-01T11:39:15.940Z,69.60
2023-04-01T11:41:47.082Z,68.40
2023-04-01T11:44:28.220Z,69.90
2023-04-01T11:47:04.520Z,68.50
2023-04-01T11:49:49.994Z,67.80
2023-04-01T11:52:26.810Z,68.50
2023-04-01T11:55:02.915Z,71.60
2023-04-01T11:57:44.730Z,70.00
2023-04-01T12:00:14.344Z,68.90
2023-04-01T12:02:52.779Z,67.20
2023-04-01T12:05:32.430Z,68.60
2023-04-01T12:08:11.899Z,69.00
2023-04-01T12:11:02.717Z,67.80
2023-04-01T12:13:29.258Z,69.50
2023-04-01T12:16:14.177Z,68.60
2023-04-01T12:18:43.743Z,69.70
2023-04-01T12:21:22.443Z,69.70
2023-04-01T12:23:49.000Z,70.10
2023-04-01T12:26:22.092Z,68.90
2023-04-01T12:29:07.571Z,69.30
2023-04-01T12:31:45.962Z,68.00
2023-04-01T12:34:30.770Z,68.50
2023-04-01T12:37:11.358Z,68.30
2023-04-01T12:39:56.934Z,68.30
2023-04-01T12:42:32.826Z,68.20
2023-04-01T12:45:19.717Z,68.90
2023-04-01T12:47:46.376Z,68.20
2023-04-01T12:50:31.951Z,67.50
2023-04-01T12:53:06.446Z,67.10
2023-04-01T12:55:33.132Z,69.10
2023-04-01T12:58:21.657Z,69.30
2023-04-01T13:01:03.337Z,68.00
2023-04-01T13:03:38.477Z,67.60
2023-04-01T13:06:21.557Z,67.80
2023-04-01T13:09:02.587Z,66.80
2023-04-01T13:11:37.660Z,67.50
2023-04-01T13:14:25.029Z,66.80
2023-04-01T13:17:01.441Z,66.70
2023-04-01T13:19:37.330Z,66.30
2023-04-01T13:22:18.336Z,67.00
2023-04-01T13:24:54.019Z,67.30
2023-04-01T13:27:20.687Z,70.00
2023-04-01T13:29:59.715Z,69.60
2023-04-01T13:32:46.567Z,67.10
2023-04-01T13:35:36.689Z,67.50
2023-04-01T13:38:09.341Z,66.90
2023-04-01T13:41:02.196Z,67.80
2023-04-01T13:43:39.340Z,67.10
2023-04-01T13:46:11.946Z,69.00
2023-04-01T13:49:05.639Z,69.60
2023-04-01T13:51:37.605Z,68.60
2023-04-01T13:54:22.593Z,68.60
2023-04-01T13:56:49.176Z,69.10
2023-04-01T13:59:18.837Z,67.80
2023-04-01T14:01:51.099Z,69.00
2023-04-01T14:04:31.548Z,68.40
2023-04-01T14:07:09.244Z,68.90
2023-04-01T14:09:51.102Z,68.60
2023-04-01T14:12:29.744Z,67.90
2023-04-01T14:15:04.410Z,67.50
2023-04-01T14:17:47.225Z,68.10
2023-04-01T14:20:29.249Z,66.70
2023-04-01T14:22:55.882Z,66.80
2023-04-01T14:25:39.300Z,66.90
2023-04-01T14:28:09.096Z,66.70
2023-04-01T14:30:38.795Z,66.20
2023-04-01T14:33:12.045Z,67.70
2023-04-01T14:35:43.790Z,66.60
2023-04-01T14:38:26.563Z,68.10
2023-04-01T14:41:12.200Z,67.70
2023-04-01T14:43:47.590Z,67.20
2023-04-01T14:46:32.964Z,67.40
2023-04-01T14:49:05.234Z,67.40
2023-04-01T14:51:38.460Z,67.90
2023-04-01T14:54:24.054Z,68.20
2023-04-01T14:56:52.649Z,67.40
2023-04-01T14:59:22.091Z,67.20
2023-04-01T15:01:49.242Z,68.60
2023-04-01T15:04:18.970Z,67.20
2023-04-01T15:07:04.618Z,66.70
2023-04-01T15:09:47.863Z,67.30
2023-04-01T15:12:22.537Z,71.00
2023-04-01T15:14:58.248Z,70.00
2023-04-01T15:17:43.693Z,69.30
2023-04-01T15:20:11.241Z,70.50
2023-04-01T15:22:40.974Z,68.70
2023-04-01T15:25:07.657Z,69.90
2023-04-01T15:27:44.099Z,67.40
2023-04-01T15:30:30.096Z,68.30
2023-04-01T15:32:56.761Z,67.80
2023-04-01T15:35:42.340Z,68.00
2023-04-01T15:38:25.787Z,67.60
2023-04-01T15:41:03.685Z,67.20
2023-04-01T15:43:49.838Z,68.00
2023-04-01T15:46:35.438Z,66.60
2023-04-01T15:49:11.765Z,67.00
2023-04-01T15:51:58.594Z,66.60
2023-04-01T15:54:46.941Z,67.00
2023-04-01T15:57:13.605Z,67.30
2023-04-01T15:59:55.947Z,67.00
2023-04-01T16:02:41.675Z,67.50
2023-04-01T16:05:11.274Z,66.90
2023-04-01T16:07:40.962Z,67.60
2023-04-01T16:10:18.909Z,66.50
2023-04-01T16:12:51.165Z,67.20
2023-04-01T16:15:23.654Z,67.50
2023-04-01T16:17:53.328Z,67.40
2023-04-01T16:20:21.169Z,67.20
2023-04-01T16:23:02.429Z,65.90
2023-04-01T16:25:30.234Z,67.20
2023-04-01T16:28:09.847Z,66.20
2023-04-01T16:30:43.107Z,66.70
2023-04-01T16:33:13.846Z,65.60
2023-04-01T16:35:43.440Z,66.40
2023-04-01T16:38:27.608Z,65.60
2023-04-01T16:41:01.773Z,65.50
2023-04-01T16:43:48.788Z,65.30
2023-04-01T16:46:15.525Z,67.20
2023-04-01T16:49:03.856Z,66.50
2023-04-01T16:51:35.432Z,66.80
2023-04-01T16:54:27.008Z,68.30
2023-04-01T16:57:02.808Z,68.30
2023-04-01T16:59:36.919Z,68.10
2023-04-01T17:02:10.382Z,68.10
2023-04-01T17:04:59.882Z,67.80
2023-04-01T17:07:37.862Z,67.50
2023-04-01T17:10:17.408Z,66.30
2023-04-01T17:13:12.301Z,66.40
2023-04-01T17:15:56.538Z,66.40
2023-04-01T17:18:26.250Z,66.90
2023-04-01T17:20:59.934Z,65.90
2023-04-01T17:23:30.998Z,66.80
2023-04-01T17:26:03.362Z,67.00
2023-04-01T17:28:37.232Z,67.20
2023-04-01T17:31:11.759Z,66.80
2023-04-01T17:33:44.166Z,66.10
2023-04-01T17:36:29.780Z,66.40
2023-04-01T17:39:19.620Z,65.80
2023-04-01T17:42:01.207Z,66.60
2023-04-01T17:44:27.734Z,66.70
2023-04-01T17:47:03.450Z,65.40
2023-04-01T17:49:30.093Z,65.60
2023-04-01T17:52:02.696Z,64.90
2023-04-01T17:54:51.495Z,65.20
2023-04-01T17:57:27.140Z,65.00
2023-04-01T17:59:59.947Z,66.40
2023-04-01T18:02:43.024Z,67.60
2023-04-01T18:05:13.069Z,66.00
2023-04-01T18:07:46.721Z,66.00
2023-04-01T18:10:18.575Z,68.00
2023-04-01T18:13:11.166Z,66.80
2023-04-01T18:15:47.368Z,67.60
2023-04-01T18:18:17.068Z,69.60
2023-04-01T18:21:01.684Z,66.80
2023-04-01T18:23:42.921Z,68.60
2023-04-01T18:26:38.396Z,68.10
2023-04-01T18:29:19.504Z,66.80
2023-04-01T18:31:52.269Z,67.40
2023-04-01T18:34:38.892Z,66.40
2023-04-01T18:37:25.723Z,67.30
2023-04-01T18:40:01.655Z,66.60
2023-04-01T18:42:47.015Z,66.40
2023-04-01T18:45:19.717Z,65.30
2023-04-01T18:47:49.658Z,65.50
2023-04-01T18:50:37.449Z,65.70
2023-04-01T18:53:22.928Z,65.20
2023-04-01T18:55:49.549Z,64.80
2023-04-01T18:58:34.541Z,64.50
2023-04-01T19:01:13.430Z,64.00
2023-04-01T19:03:44.211Z,63.60
2023-04-01T19:06:32.669Z,63.50
2023-04-01T19:09:10.937Z,63.80
2023-04-01T19:11:50.508Z,63.90
2023-04-01T19:14:17.069Z,63.90
2023-04-01T19:16:51.469Z,63.70
2023-04-01T19:19:22.711Z,63.80
2023-04-01T19:21:55.784Z,63.20
2023-04-01T19:24:38.377Z,63.80
2023-04-01T19:27:27.758Z,63.90
2023-04-01T19:29:55.142Z,63.00
2023-04-01T19:32:21.799Z,62.90
2023-04-01T19:34:54.474Z,63.10
2023-04-01T19:37:34.668Z,63.50
2023-04-01T19:40:16.673Z,63.50
2023-04-01T19:42:43.349Z,63.10
2023-04-01T19:45:10.452Z,63.10
2023-04-01T19:47:40.137Z,62.70
2023-04-01T19:50:21.994Z,63.10
2023-04-01T19:52:49.513Z,62.90
2023-04-01T19:55:35.083Z,63.00
2023-04-01T19:58:09.534Z,62.40
2023-04-01T20:00:39.088Z,63.60
2023-04-01T20:03:10.708Z,63.80
2023-04-01T20:05:37.396Z,63.80
2023-04-01T20:08:22.849Z,65.80
2023-04-01T20:10:57.666Z,64.70
2023-04-01T20:13:48.858Z,63.50
2023-04-01T20:16:16.430Z,64.00
2023-04-01T20:18:50.243Z,65.40
2023-04-01T20:21:20.047Z,64.50
2023-04-01T20:24:01.872Z,64.40
2023-04-01T20:26:36.517Z,63.80
2023-04-01T20:29:16.182Z,63.60
2023-04-01T20:31:45.906Z,63.40
2023-04-01T20:34:19.110Z,63.00
2023-04-01T20:37:04.572Z,62.90
2023-04-01T20:39:35.658Z,62.90
2023-04-01T20:42:22.647Z,62.80
2023-04-01T20:44:58.695Z,62.50
2023-04-01T20:47:25.325Z,62.50
2023-04-01T20:50:01.536Z,63.10
2023-04-01T20:52:33.190Z,62.70
2023-04-01T20:55:17.068Z,62.20
2023-04-01T20:57:43.958Z,62.60
2023-04-01T21:00:19.632Z,61.70
2023-04-01T21:03:03.556Z,61.80
2023-04-01T21:05:35.172Z,62.00
2023-04-01T21:08:21.786Z,61.30
2023-04-01T21:11:11.576Z,61.70
2023-04-01T21:13:38.224Z,61.40
2023-04-01T21:16:23.602Z,61.70
2023-04-01T21:19:09.136Z,61.50
2023-04-01T21:21:58.702Z,61.30
2023-04-01T21:24:25.484Z,61.20
2023-04-01T21:26:57.965Z,61.00
2023-04-01T21:29:39.734Z,61.40
2023-04-01T21:32:25.561Z,61.50
2023-04-01T21:34:55.323Z,61.20
2023-04-01T21:37:34.285Z,61.60
2023-04-01T21:40:19.718Z,61.50
2023-04-01T21:42:49.385Z,60.70
2023-04-01T21:45:24.600Z,61.50
2023-04-01T21:48:06.977Z,61.10
2023-04-01T21:50:40.972Z,61.50
2023-04-01T21:53:13.639Z,61.60
2023-04-01T21:55:58.491Z,61.60
2023-04-01T21:58:25.459Z,61.30
2023-04-01T22:00:58.435Z,60.90
2023-04-01T22:03:27.765Z,61.40
2023-04-01T22:06:10.060Z,61.20
2023-04-01T22:08:36.698Z,61.30
2023-04-01T22:13:45.258Z,61.20
2023-04-01T22:16:26.574Z,60.60
2023-04-01T22:19:10.173Z,60.90
2023-04-01T22:21:42.473Z,60.90
2023-04-01T22:24:24.059Z,60.80
2023-04-01T22:26:53.734Z,60.60
2023-04-01T22:29:32.405Z,61.10
2023-04-01T22:31:58.963Z,61.30
2023-04-01T22:34:33.029Z,61.20
2023-04-01T22:37:18.662Z,61.10
2023-04-01T22:39:56.740Z,60.90
2023-04-01T22:42:35.100Z,61.10
2023-04-01T22:45:13.839Z,60.90
2023-04-01T22:48:05.001Z,60.70
2023-04-01T22:50:41.710Z,60.60
2023-04-01T22:53:08.299Z,61.00
2023-04-01T22:55:37.027Z,60.80
2023-04-01T22:58:05.664Z,60.90
2023-04-01T23:00:37.245Z,60.70
2023-04-01T23:03:20.016Z,60.90
2023-04-01T23:05:57.421Z,60.70
2023-04-01T23:08:42.315Z,60.70
2023-04-01T23:11:27.383Z,60.60
2023-04-01T23:13:58.887Z,60.70
2023-04-01T23:16:54.600Z,60.70
2023-04-01T23:19:27.826Z,60.70
2023-04-01T23:22:07.314Z,60.90
2023-04-01T23:24:37.396Z,60.80
2023-04-01T23:27:09.146Z,61.20
2023-04-01T23:29:37.130Z,60.90
2023-04-01T23:32:04.949Z,61.20
2023-04-01T23:34:35.831Z,60.70
2023-04-01T23:37:06.901Z,60.30
2023-04-01T23:39:38.407Z,60.50
2023-04-01T23:42:06.597Z,60.30
2023-04-01T23:44:34.438Z,60.20
2023-04-01T23:47:02.104Z,59.70
2023-04-01T23:49:31.290Z,60.20
2023-04-01T23:52:00.279Z,60.20
2023-04-01T23:54:49.808Z,60.20
2023-04-01T23:57:19.124Z,59.90
2023-04-01T23:59:59.770Z,60.40
